Time;durP1;ratioP1;P1;durP2;ratioP2;P2;SDS_P1;SDS_P2;PMS_P1;PMS_P2;Temp;Humidity;BMP_temperature;BMP_pressure;BME280_temperature;BME280_humidity;BME280_pressure;Samples;Min_cycle;Max_cycle;Signal;HPM_P1;HPM_P2
2024/03/23 00:00:56;;;;;;;41.67;6.50;;;8.10;99.90;;;6.68;100.00;100370.56;6186163;23;20434;-82
2024/03/23 00:03:23;;;;;;;31.63;4.90;;;8.00;99.90;;;6.61;100.00;100364.69;6185202;23;20005;-82
2024/03/23 00:05:51;;;;;;;41.45;5.55;;;8.00;99.90;;;6.62;99.97;100361.16;6185675;23;20096;-82
2024/03/23 00:08:21;;;;;;;46.45;5.80;;;8.00;99.90;;;6.55;100.00;100359.69;6185983;23;20009;-84
2024/03/23 00:10:48;;;;;;;39.58;5.63;;;7.90;99.90;;;6.51;100.00;100352.84;6184535;23;20015;-85
2024/03/23 00:13:16;;;;;;;46.90;6.90;;;7.90;99.90;;;6.58;100.00;100343.84;6185283;23;20448;-82
2024/03/23 00:15:43;;;;;;;41.45;6.38;;;7.90;99.90;;;6.59;99.98;100337.72;6186364;23;20059;-81
2024/03/23 00:18:15;;;;;;;44.10;6.40;;;7.90;99.90;;;6.58;99.93;100334.25;6210936;23;20031;-82
2024/03/23 00:20:42;;;;;;;40.88;5.88;;;7.90;99.90;;;6.61;100.00;100328.06;6187182;23;20080;-82
2024/03/23 00:23:09;;;;;;;38.67;5.72;;;7.90;99.90;;;6.63;100.00;100326.25;6184756;23;20005;-83
2024/03/23 00:25:41;;;;;;;44.53;5.78;;;7.90;99.90;;;6.66;100.00;100322.66;6187361;23;20076;-82
2024/03/23 00:28:11;;;;;;;44.38;6.38;;;8.00;99.90;;;6.67;100.00;100316.50;6185961;23;20036;-82
2024/03/23 00:30:39;;;;;;;40.20;5.95;;;7.90;99.90;;;6.68;100.00;100313.84;6186717;23;20516;-83
2024/03/23 00:33:17;;;;;;;48.63;6.53;;;8.00;99.90;;;6.69;100.00;100318.16;6186350;23;20011;-83
2024/03/23 00:35:50;;;;;;;40.30;5.93;;;8.00;99.90;;;6.67;99.99;100313.88;6209954;23;20005;-82
2024/03/23 00:38:22;;;;;;;36.33;6.40;;;8.00;99.90;;;6.64;99.74;100320.09;6185629;23;20005;-83
2024/03/23 00:40:58;;;;;;;46.58;6.60;;;7.90;99.90;;;6.65;100.00;100324.44;6138222;23;20017;-83
2024/03/23 00:43:33;;;;;;;45.72;5.80;;;7.90;99.90;;;6.65;100.00;100319.19;6160564;23;20092;-86
2024/03/23 00:46:00;;;;;;;48.25;6.38;;;7.90;99.90;;;6.65;99.80;100319.19;6162506;23;20013;-83
2024/03/23 00:48:28;;;;;;;44.67;6.72;;;7.90;99.90;;;6.64;99.81;100320.09;6187058;23;20349;-82
2024/03/23 00:50:55;;;;;;;56.50;7.53;;;7.90;99.90;;;6.64;100.00;100321.88;6184663;23;20009;-81
2024/03/23 00:53:30;;;;;;;37.60;5.60;;;7.90;99.90;;;6.62;100.00;100308.81;6184523;23;20009;-82
2024/03/23 00:55:56;;;;;;;43.35;7.13;;;7.90;99.90;;;6.63;100.00;100312.28;6185022;23;20484;-83
2024/03/23 00:58:22;;;;;;;43.60;6.05;;;7.90;99.90;;;6.59;100.00;100311.56;6185198;23;20096;-81
2024/03/23 01:00:53;;;;;;;47.22;7.15;;;7.90;99.90;;;6.61;100.00;100316.72;6210821;23;20015;-82
2024/03/23 01:03:18;;;;;;;48.95;5.90;;;7.90;99.90;;;6.60;100.00;100312.41;6184521;23;20012;-82
2024/03/23 01:05:44;;;;;;;49.65;6.88;;;7.90;99.90;;;6.61;100.00;100312.38;6185194;23;20408;-82
2024/03/23 01:08:10;;;;;;;37.38;5.97;;;7.90;99.90;;;6.60;100.00;100302.78;6185136;23;20075;-82
2024/03/23 01:10:36;;;;;;;44.65;6.15;;;7.90;99.90;;;6.61;100.00;100312.38;6184606;23;20037;-84
2024/03/23 01:13:02;;;;;;;41.78;5.20;;;7.90;99.90;;;6.54;100.00;100306.50;6184506;23;20478;-81
2024/03/23 01:15:33;;;;;;;40.10;5.18;;;7.90;99.90;;;6.52;100.00;100303.09;6210495;23;20009;-82
2024/03/23 01:17:59;;;;;;;49.42;5.57;;;7.80;99.90;;;6.55;99.74;100312.59;6185309;23;20021;-84
2024/03/23 01:20:24;;;;;;;43.95;6.18;;;7.80;99.90;;;6.55;99.71;100307.34;6185502;23;20504;-81
2024/03/23 01:22:50;;;;;;;48.05;6.00;;;7.90;99.90;;;6.53;99.70;100310.03;6209659;23;20013;-81
2024/03/23 01:25:16;;;;;;;46.50;5.95;;;7.90;99.90;;;6.54;99.64;100311.75;6210367;23;20009;-83
2024/03/23 01:27:42;;;;;;;35.60;5.20;;;7.80;99.90;;;6.54;98.98;100311.75;6185061;23;20008;-81
2024/03/23 01:30:16;;;;;;;42.10;4.93;;;7.80;99.90;;;6.55;99.16;100294.28;6209520;23;20084;-82
2024/03/23 01:32:43;;;;;;;42.70;6.03;;;7.80;99.90;;;6.53;99.13;100294.31;6184575;23;20009;-82
2024/03/23 01:35:09;;;;;;;42.53;5.40;;;7.80;99.90;;;6.54;98.56;100295.16;6209555;23;20009;-83
2024/03/23 01:37:34;;;;;;;47.00;6.32;;;7.80;99.90;;;6.52;98.84;100297.00;6210084;23;20031;-81
2024/03/23 01:40:06;;;;;;;44.15;5.30;;;7.80;99.90;;;6.50;99.00;100284.00;6210293;23;20039;-82
2024/03/23 01:42:32;;;;;;;44.70;5.45;;;7.80;99.90;;;6.48;98.45;100288.44;6184361;23;20445;-81
2024/03/23 01:44:57;;;;;;;50.17;5.75;;;7.80;99.90;;;6.45;98.66;100278.06;6184994;23;20025;-82
2024/03/23 01:47:23;;;;;;;38.13;5.00;;;7.70;99.90;;;6.45;98.91;100278.06;6184386;23;20390;-82
2024/03/23 01:49:49;;;;;;;44.22;5.70;;;7.80;99.90;;;6.45;98.59;100269.38;6184512;23;20012;-83
2024/03/23 01:54:51;;;;;;;40.42;5.22;;;7.70;99.90;;;6.39;99.07;100254.75;6307092;22;20023;-82
2024/03/23 01:57:17;;;;;;;37.53;6.32;;;7.70;99.90;;;6.39;98.43;100265.19;6255121;22;20011;-83
2024/03/23 01:59:51;;;;;;;46.05;5.43;;;7.70;99.90;;;6.39;99.10;100265.19;6254384;22;20064;-82
2024/03/23 02:02:18;;;;;;;40.30;5.47;;;7.70;99.90;;;6.35;99.23;100250.56;6281384;22;20063;-82
2024/03/23 02:04:46;;;;;;;42.72;5.30;;;7.60;99.90;;;6.33;99.02;100255.84;6280603;22;20102;-82
2024/03/23 02:07:21;;;;;;;44.95;5.82;;;7.60;99.90;;;6.32;99.13;100246.25;6255539;22;20021;-82
2024/03/23 02:09:47;;;;;;;38.55;5.10;;;7.60;99.90;;;6.30;99.38;100245.47;6280435;22;20078;-83
2024/03/23 02:12:13;;;;;;;48.67;5.60;;;7.60;99.90;;;6.27;99.40;100240.38;6255179;22;20443;-81
2024/03/23 02:14:39;;;;;;;48.90;7.22;;;7.60;99.90;;;6.27;99.40;100240.38;6280669;22;20009;-82
2024/03/23 02:17:13;;;;;;;55.63;5.80;;;7.60;99.90;;;6.24;99.55;100230.03;6280585;22;20034;-83
2024/03/23 02:19:38;;;;;;;47.20;6.10;;;7.50;99.90;;;6.23;99.48;100232.69;6255293;22;20447;-83
2024/03/23 02:22:04;;;;;;;38.42;5.88;;;7.50;99.90;;;6.23;99.24;100237.91;6279694;22;20011;-81
2024/03/23 02:24:30;;;;;;;43.08;5.30;;;7.50;99.90;;;6.20;99.50;100231.06;6280365;22;20443;-82
2024/03/23 02:27:01;;;;;;;32.00;4.90;;;7.50;99.90;;;6.21;99.71;100229.28;6280934;22;20031;-84
2024/03/23 02:29:30;;;;;;;45.05;5.60;;;7.50;99.90;;;6.19;99.81;100228.47;6280489;22;20094;-84
2024/03/23 02:31:55;;;;;;;39.13;5.18;;;7.50;99.90;;;6.20;99.99;100222.34;6279695;22;20011;-83
2024/03/23 02:34:21;;;;;;;42.33;6.47;;;7.50;99.90;;;6.20;99.97;100217.97;6307544;22;20030;-83
2024/03/23 02:36:47;;;;;;;43.58;5.60;;;7.50;99.90;;;6.21;99.94;100224.91;6255407;22;20031;-81
2024/03/23 02:39:22;;;;;;;47.95;5.35;;;7.50;99.90;;;6.25;100.00;100221.25;6280430;22;20007;-81
2024/03/23 02:41:48;;;;;;;38.05;5.88;;;7.50;99.90;;;6.25;100.00;100216.03;6307286;22;20004;-84
2024/03/23 02:44:23;;;;;;;39.95;5.25;;;7.60;99.90;;;6.23;100.00;100215.25;6279893;22;20350;-82
2024/03/23 02:46:48;;;;;;;48.13;6.35;;;7.50;99.90;;;6.20;100.00;100210.13;6282337;22;20038;-82
2024/03/23 02:49:14;;;;;;;42.08;6.15;;;7.50;99.90;;;6.16;100.00;100212.00;6280685;22;20041;-82
2024/03/23 02:51:40;;;;;;;54.42;6.47;;;7.50;99.90;;;6.13;100.00;100201.66;6279166;22;20435;-82
2024/03/23 02:54:06;;;;;;;48.60;5.65;;;7.50;99.90;;;6.13;100.00;100200.78;6280571;22;20011;-84
2024/03/23 02:56:41;;;;;;;39.80;5.78;;;7.50;99.90;;;6.13;100.00;100200.78;6280124;22;20439;-82
2024/03/23 02:59:07;;;;;;;53.33;5.93;;;7.40;99.90;;;6.08;100.00;100200.97;6280069;22;20003;-83
2024/03/23 03:01:33;;;;;;;43.10;6.15;;;7.40;99.90;;;6.09;100.00;100196.59;6253737;22;20015;-81
2024/03/23 03:04:09;;;;;;;53.75;7.40;;;7.40;99.90;;;6.09;100.00;100196.59;6254735;22;20667;-83
2024/03/23 03:06:34;;;;;;;49.80;6.63;;;7.40;99.90;;;6.10;100.00;100203.53;6282394;22;20324;-83
2024/03/23 03:09:00;;;;;;;43.70;6.38;;;7.40;99.90;;;6.11;100.00;100195.63;6280805;22;20036;-82
2024/03/23 03:11:33;;;;;;;48.08;6.25;;;7.40;99.90;;;6.09;100.00;100189.63;6279706;22;20023;-81
2024/03/23 03:14:00;;;;;;;41.95;5.57;;;7.40;99.90;;;6.10;100.00;100185.22;6281495;22;20003;-83
2024/03/23 03:16:26;;;;;;;46.40;6.72;;;7.40;99.90;;;6.10;100.00;100182.63;6254459;22;20003;-81
2024/03/23 03:18:52;;;;;;;47.22;6.40;;;7.40;99.90;;;6.13;100.00;100187.72;6280089;22;20008;-82
2024/03/23 03:21:19;;;;;;;42.95;6.57;;;7.40;99.90;;;6.10;100.00;100180.00;6278884;22;20488;-83
2024/03/23 03:23:52;;;;;;;46.47;6.30;;;7.90;99.90;;;6.03;100.00;100173.31;6280417;22;20015;-83
2024/03/23 03:26:18;;;;;;;36.78;5.95;;;7.30;99.90;;;5.97;100.00;100165.69;6280638;22;20014;-82
2024/03/23 03:28:48;;;;;;;32.80;5.65;;;7.30;99.90;;;5.91;100.00;100175.41;6278886;22;20428;-82
2024/03/23 03:31:18;;;;;;;37.15;5.43;;;7.30;99.90;;;5.85;100.00;100161.72;6255066;22;20014;-82
2024/03/23 03:33:44;;;;;;;38.47;4.90;;;7.20;99.90;;;5.80;100.00;100161.88;6279947;22;20018;-81
2024/03/23 03:36:11;;;;;;;50.25;6.28;;;7.20;99.90;;;5.80;100.00;100159.25;6281711;22;20426;-82
2024/03/23 03:38:39;;;;;;;48.60;5.75;;;7.20;99.90;;;5.80;100.00;100166.25;6256871;22;20007;-82
2024/03/23 03:41:10;;;;;;;37.15;5.75;;;7.20;99.90;;;5.78;100.00;100160.22;6282424;22;20412;-81
2024/03/23 03:43:36;;;;;;;39.42;5.22;;;7.20;99.90;;;5.74;100.00;100149.03;6281529;22;20046;-81
2024/03/23 03:46:02;;;;;;;47.97;5.63;;;7.10;99.90;;;5.72;100.00;100143.00;6282087;22;20082;-81
2024/03/23 03:48:29;;;;;;;39.05;5.25;;;7.10;99.90;;;5.72;100.00;100149.09;6282419;22;20014;-82
2024/03/23 03:50:55;;;;;;;46.20;5.20;;;7.10;99.90;;;5.70;100.00;100147.44;6282113;22;20022;-83
2024/03/23 03:53:26;;;;;;;41.97;6.00;;;7.10;99.90;;;5.69;100.00;100143.13;6281919;22;20003;-83
2024/03/23 03:55:52;;;;;;;34.15;5.60;;;7.00;99.90;;;5.69;100.00;100136.13;6281712;22;20066;-81
2024/03/23 03:58:18;;;;;;;42.50;6.25;;;7.00;99.90;;;5.67;100.00;100140.56;6281506;22;20011;-83
2024/03/23 04:00:43;;;;;;;35.78;5.15;;;7.00;99.90;;;5.65;100.00;100137.16;6256449;22;20011;-81
2024/03/23 04:03:09;;;;;;;44.58;4.97;;;7.00;99.90;;;5.66;100.00;100143.22;6280886;22;20010;-83
2024/03/23 04:05:35;;;;;;;47.08;6.30;;;7.00;99.90;;;5.63;100.00;100143.34;6256215;22;20431;-81
2024/03/23 04:08:10;;;;;;;49.60;5.10;;;6.90;99.90;;;5.63;100.00;100138.13;6281836;22;20335;-82
2024/03/23 04:10:36;;;;;;;34.65;4.80;;;6.90;99.90;;;5.58;100.00;100133.06;6281987;22;20320;-83
2024/03/23 04:13:04;;;;;;;36.67;5.20;;;6.90;99.90;;;5.49;100.00;100136.00;6280842;22;20084;-81
2024/03/23 04:15:33;;;;;;;40.17;5.28;;;6.80;99.90;;;5.37;100.00;100136.41;6257246;22;20007;-83
2024/03/23 04:18:01;;;;;;;43.05;5.03;;;6.70;99.90;;;5.32;99.76;100133.97;6307417;22;20003;-82
2024/03/23 04:20:27;;;;;;;37.33;4.93;;;6.70;99.90;;;5.29;100.00;100134.06;6281444;22;20007;-82
2024/03/23 04:22:53;;;;;;;43.70;4.82;;;6.70;99.90;;;5.29;100.00;100134.06;6280963;22;20312;-81
2024/03/23 04:25:19;;;;;;;48.30;5.18;;;6.60;99.90;;;5.30;100.00;100125.34;6256209;22;20056;-82
2024/03/23 04:27:56;;;;;;;47.83;5.65;;;6.60;99.90;;;5.29;100.00;100124.50;6281726;22;20007;-81
2024/03/23 04:30:25;;;;;;;49.17;5.47;;;6.60;99.90;;;5.31;100.00;100125.31;6282007;22;20045;-81
2024/03/23 04:33:00;;;;;;;43.42;4.47;;;6.60;99.90;;;5.32;100.00;100128.75;6281404;22;20007;-82
2024/03/23 04:35:27;;;;;;;41.10;4.72;;;6.60;99.90;;;5.29;100.00;100118.41;6281795;22;20013;-82
2024/03/23 04:38:01;;;;;;;36.80;4.68;;;6.60;99.90;;;5.30;100.00;100110.53;6281155;22;20408;-81
2024/03/23 04:40:30;;;;;;;43.53;4.82;;;6.60;99.90;;;5.27;100.00;100108.03;6281283;22;20140;-83
2024/03/23 04:43:04;;;;;;;49.05;5.47;;;6.60;99.90;;;5.28;100.00;100106.28;6280809;22;20087;-81
2024/03/23 04:45:32;;;;;;;51.33;5.38;;;6.60;99.90;;;5.24;100.00;100102.91;6281632;22;20006;-84
2024/03/23 04:47:58;;;;;;;48.33;6.95;;;6.60;99.90;;;5.26;100.00;100100.25;6255685;22;19999;-82
2024/03/23 04:50:31;;;;;;;38.90;4.90;;;6.60;99.90;;;5.23;100.00;100095.16;6255393;22;20064;-81
2024/03/23 04:52:59;;;;;;;47.55;5.80;;;6.60;99.90;;;5.22;100.00;100101.25;6255069;22;20068;-83
2024/03/23 04:55:25;;;;;;;47.85;5.70;;;6.60;99.90;;;5.20;100.00;100101.31;6281268;22;20014;-81
2024/03/23 04:57:51;;;;;;;53.70;6.32;;;6.60;99.90;;;5.16;100.00;100096.25;6281396;22;20284;-81
2024/03/23 05:00:23;;;;;;;49.00;6.20;;;6.50;99.90;;;5.13;100.00;100098.06;6281439;22;20034;-81
2024/03/23 05:02:49;;;;;;;42.50;5.05;;;6.50;99.90;;;5.11;100.00;100097.25;6308547;22;20074;-83
2024/03/23 05:05:15;;;;;;;51.15;5.82;;;6.50;99.90;;;5.09;100.00;100101.66;6309022;22;20007;-81
2024/03/23 05:07:41;;;;;;;46.58;4.78;;;6.50;99.90;;;5.06;100.00;100101.78;6280674;22;20030;-81
2024/03/23 05:10:16;;;;;;;36.90;4.43;;;6.40;99.90;;;5.05;100.00;100094.00;6255510;22;20355;-82
2024/03/23 05:12:42;;;;;;;47.20;5.53;;;6.40;99.90;;;5.02;100.00;100076.69;6282926;22;20339;-81
2024/03/23 05:15:08;;;;;;;37.60;5.28;;;6.40;99.90;;;5.01;100.00;100085.44;6306876;22;20003;-84
2024/03/23 05:17:34;;;;;;;40.78;4.93;;;6.40;99.90;;;4.99;100.00;100078.53;6308864;22;20004;-82
2024/03/23 05:20:09;;;;;;;43.03;4.90;;;6.40;99.90;;;4.97;100.00;100068.19;6281900;22;20007;-83
2024/03/23 05:22:36;;;;;;;48.25;5.32;;;6.30;99.90;;;4.92;100.00;100073.56;6281889;22;20007;-82
2024/03/23 05:25:05;;;;;;;37.97;4.82;;;6.30;99.90;;;4.88;100.00;100056.31;6255828;22;20011;-81
2024/03/23 05:27:33;;;;;;;42.25;6.45;;;6.30;99.90;;;4.88;100.00;100051.09;6255918;22;20018;-82
2024/03/23 05:29:59;;;;;;;38.03;5.20;;;6.30;99.90;;;4.87;100.00;100053.72;6281101;22;20443;-83
2024/03/23 05:32:25;;;;;;;49.63;5.25;;;6.30;99.90;;;4.85;100.00;100065.97;6280804;22;20014;-82
2024/03/23 05:34:55;;;;;;;49.38;5.65;;;6.20;99.90;;;4.82;100.00;100055.66;6280853;22;20050;-81
2024/03/23 05:37:30;;;;;;;41.75;5.68;;;6.20;99.90;;;4.79;100.00;100060.97;6281892;22;19999;-82
2024/03/23 05:39:56;;;;;;;40.92;5.05;;;6.20;99.90;;;4.78;100.00;100067.94;6281561;22;20011;-81
2024/03/23 05:42:22;;;;;;;46.97;6.20;;;6.20;99.90;;;4.78;100.00;100070.53;6254949;22;20416;-81
2024/03/23 05:44:56;;;;;;;49.20;6.40;;;6.20;99.90;;;4.82;100.00;100076.53;6280318;22;20010;-82
2024/03/23 05:47:22;;;;;;;33.03;5.10;;;6.20;99.90;;;4.82;100.00;100076.53;6283112;22;20594;-81
2024/03/23 05:49:48;;;;;;;50.47;6.22;;;6.20;99.90;;;4.85;100.00;100081.63;6280631;22;20014;-82
2024/03/23 05:52:14;;;;;;;45.33;6.05;;;6.20;99.90;;;4.88;100.00;100076.28;6307584;22;20008;-81
2024/03/23 05:54:45;;;;;;;41.88;5.90;;;6.30;99.90;;;4.92;100.00;100072.69;6280802;22;19995;-84
2024/03/23 05:57:12;;;;;;;40.78;5.05;;;6.30;99.90;;;4.99;100.00;100075.94;6280916;22;20003;-81
2024/03/23 05:59:37;;;;;;;30.85;4.47;;;6.40;99.90;;;4.95;100.00;100080.44;6255669;22;20019;-83
2024/03/23 06:02:03;;;;;;;30.60;4.70;;;6.30;99.90;;;4.93;100.00;100077.00;6254385;22;20094;-82
2024/03/23 06:04:29;;;;;;;39.83;5.13;;;6.30;99.90;;;4.93;100.00;100077.00;6281129;22;20121;-84
2024/03/23 06:06:55;;;;;;;42.45;5.60;;;6.30;99.90;;;4.98;100.00;100072.47;6255003;22;20090;-82
2024/03/23 06:09:26;;;;;;;35.58;4.88;;;6.40;99.90;;;5.04;100.00;100069.66;6307617;22;20050;-81
2024/03/23 06:11:52;;;;;;;43.08;6.20;;;6.40;99.90;;;5.10;100.00;100073.84;6255280;22;20335;-82
2024/03/23 06:14:18;;;;;;;38.13;5.60;;;6.40;99.90;;;5.17;100.00;100077.09;6308498;22;20086;-81
2024/03/23 06:16:43;;;;;;;44.08;5.38;;;6.50;99.90;;;5.21;100.00;100065.63;6281243;22;20030;-83
2024/03/23 06:19:09;;;;;;;35.00;6.15;;;6.60;99.90;;;5.25;100.00;100068.09;6280993;22;20003;-82
2024/03/23 06:21:35;;;;;;;46.28;5.40;;;6.60;99.90;;;5.31;100.00;100073.09;6279686;22;20012;-81
2024/03/23 06:24:08;;;;;;;53.45;5.38;;;6.60;99.90;;;5.37;100.00;100071.16;6280605;22;20056;-81
2024/03/23 06:26:34;;;;;;;41.88;6.45;;;6.70;99.90;;;5.41;100.00;100067.53;6280632;22;20011;-81
2024/03/23 06:29:00;;;;;;;47.80;5.78;;;6.80;99.90;;;5.44;100.00;100060.44;6280785;22;20038;-82
2024/03/23 06:31:33;;;;;;;38.95;5.95;;;6.80;99.90;;;5.50;100.00;100054.97;6280007;22;20087;-83
2024/03/23 06:34:02;;;;;;;48.08;7.05;;;6.80;99.90;;;5.54;100.00;100055.72;6256167;22;20011;-83
2024/03/23 06:36:30;;;;;;;56.70;7.63;;;6.90;99.90;;;5.60;100.00;100062.50;6280469;22;20001;-82
2024/03/23 06:39:01;;;;;;;52.80;7.30;;;6.90;99.90;;;5.67;100.00;100062.19;6308133;22;20482;-83
2024/03/23 06:41:27;;;;;;;49.58;6.35;;;7.00;99.90;;;5.74;100.00;100053.25;6280267;22;20012;-83
2024/03/23 06:43:53;;;;;;;59.50;6.93;;;7.10;99.90;;;5.84;100.00;100058.13;6279265;22;20087;-81
2024/03/23 06:46:19;;;;;;;61.47;6.50;;;7.10;99.90;;;5.88;100.00;100059.72;6305761;22;20343;-83
2024/03/23 06:48:53;;;;;;;71.28;9.50;;;7.20;99.90;;;5.93;100.00;100063.84;6280688;22;20087;-81
2024/03/23 06:51:19;;;;;;;57.95;7.40;;;7.20;99.90;;;5.99;100.00;100056.72;6281504;22;19995;-82
2024/03/23 06:53:45;;;;;;;48.85;7.40;;;7.30;99.90;;;6.08;100.00;100058.97;6254356;22;20014;-81
2024/03/23 06:56:11;;;;;;;56.97;7.68;;;7.40;99.90;;;6.19;100.00;100053.31;6280152;22;20026;-84
2024/03/23 06:58:37;;;;;;;55.85;7.40;;;7.50;99.90;;;6.31;100.00;100048.47;6279946;22;20034;-81
2024/03/23 07:01:03;;;;;;;52.38;7.07;;;7.60;99.90;;;6.43;100.00;100056.72;6279902;22;20793;-82
2024/03/23 07:03:31;;;;;;;47.33;6.82;;;7.70;99.90;;;6.55;100.00;100051.00;6279694;22;20522;-84
2024/03/23 07:06:03;;;;;;;43.95;6.82;;;7.80;99.90;;;6.68;100.00;100041.75;6280559;22;20007;-82
2024/03/23 07:08:29;;;;;;;34.63;6.57;;;8.00;99.90;;;6.76;100.00;100039.66;6307721;22;20033;-82
2024/03/23 07:10:55;;;;;;;41.92;6.97;;;8.00;99.90;;;6.77;100.00;100035.28;6279797;22;20070;-81
2024/03/23 07:13:20;;;;;;;41.97;7.30;;;8.10;99.90;;;6.83;100.00;100035.03;6307492;22;20057;-83
2024/03/23 07:15:55;;;;;;;37.67;6.10;;;8.10;99.90;;;6.81;100.00;100025.53;6254344;22;20406;-83
2024/03/23 07:18:22;;;;;;;48.88;7.30;;;8.20;99.90;;;6.88;100.00;100027.81;6280837;22;20007;-82
2024/03/23 07:21:03;;;;;;;44.67;6.53;;;8.10;99.90;;;6.62;100.00;100021.06;6280815;22;20003;-82
2024/03/23 07:23:29;;;;;;;44.42;6.13;;;8.10;99.90;;;6.62;100.00;100020.22;6279985;22;20078;-83
2024/03/23 07:26:05;;;;;;;47.42;7.20;;;;;;;6.68;100.00;100033.91;6280028;22;20729;-83
2024/03/23 07:28:32;;;;;;;41.47;5.38;;;8.00;99.90;;;6.77;100.00;100027.44;6280829;22;20011;-85
2024/03/23 07:31:13;;;;;;;34.90;5.82;;;8.10;99.90;;;6.63;100.00;100033.25;6280323;22;20137;-84
2024/03/23 07:33:48;;;;;;;37.47;5.53;;;;;;;6.72;100.00;100032.00;6284794;22;20003;-83
2024/03/23 07:36:14;;;;;;;47.88;6.95;;;8.10;99.90;;;6.85;99.98;100027.97;6281748;22;20018;-82
2024/03/23 07:41:32;;;;;;;38.50;5.78;;;8.70;99.90;;;6.92;98.76;100028.53;6222631;23;20004;-82
2024/03/23 07:43:58;;;;;;;34.10;5.07;;;8.30;99.90;;;6.78;97.23;100016.91;6192942;23;20014;-83
2024/03/23 07:46:25;;;;;;;43.70;5.43;;;8.20;99.90;;;6.85;97.00;100014.03;6192955;23;20397;-81
2024/03/23 07:48:51;;;;;;;41.95;4.57;;;8.20;99.90;;;6.74;97.15;100002.25;6193634;23;20537;-82
2024/03/23 07:51:23;;;;;;;27.77;3.72;;;8.10;99.90;;;6.46;96.07;99992.09;6192444;23;20004;-82
2024/03/23 07:53:52;;;;;;;30.80;3.92;;;8.00;99.90;;;6.28;96.56;99996.28;6192667;23;20980;-84
2024/03/23 07:56:18;;;;;;;31.02;4.05;;;7.90;99.90;;;6.27;97.17;100002.44;6192694;23;20026;-83
2024/03/23 07:58:53;;;;;;;40.55;5.82;;;7.80;99.90;;;6.16;97.29;99996.78;6192583;23;20016;-82
2024/03/23 08:01:20;;;;;;;36.03;4.72;;;;;;;6.21;97.94;99992.22;6192709;23;20019;-84
2024/03/23 08:03:46;;;;;;;36.33;4.82;;;7.80;99.90;;;6.19;98.43;99986.22;6217413;23;20087;-82
2024/03/23 08:06:19;;;;;;;36.00;4.82;;;7.80;99.90;;;6.23;98.52;99986.94;6192829;23;20032;-82
2024/03/23 08:08:49;;;;;;;33.00;4.40;;;7.80;99.90;;;6.32;99.30;99987.41;6217668;23;20011;-82
2024/03/23 08:11:15;;;;;;;24.13;4.13;;;7.80;99.90;;;6.41;99.22;99991.41;6192134;23;20004;-85
2024/03/23 08:13:48;;;;;;;32.40;4.22;;;7.90;99.90;;;6.45;98.90;99981.69;6193070;23;20012;-83
2024/03/23 08:16:13;;;;;;;24.70;4.00;;;7.90;99.90;;;6.28;98.59;99985.81;6193311;23;20004;-82
2024/03/23 08:18:42;;;;;;;36.75;5.07;;;7.80;99.90;;;6.32;98.81;99982.19;6253354;22;20018;-85
2024/03/23 08:21:07;;;;;;;40.33;6.07;;;7.90;99.90;;;6.59;98.05;99979.34;6280319;22;20510;-85
2024/03/23 08:23:42;;;;;;;50.03;5.97;;;8.00;99.90;;;6.80;98.03;99982.81;6280366;22;20004;-85
2024/03/23 08:26:21;;;;;;;46.20;5.93;;;8.20;99.90;;;6.99;96.97;99982.88;6281968;22;20504;-82
2024/03/23 08:28:50;;;;;;;38.75;5.05;;;8.30;99.90;;;6.97;95.64;99982.06;6283574;22;20035;-82
2024/03/23 08:31:23;;;;;;;34.97;4.90;;;8.30;99.90;;;6.89;93.66;99981.56;6256566;22;20003;-81
2024/03/23 08:33:52;;;;;;;36.28;4.22;;;8.20;99.90;;;6.68;93.24;99972.88;6281710;22;20451;-86
2024/03/23 08:36:34;;;;;;;43.75;7.57;;;8.20;99.90;;;6.70;92.95;99961.44;6282401;22;20011;-84
2024/03/23 08:39:23;;;;;;;32.03;5.10;;;8.30;99.90;;;6.92;93.59;99965.72;6284560;22;20014;-84
2024/03/23 08:41:50;;;;;;;30.33;4.05;;;8.40;99.90;;;7.05;93.34;99974.75;6281169;22;20038;-84
2024/03/23 08:44:29;;;;;;;;;;;;;;;;;;;;;
2024/03/23 08:47:22;;;;;;;30.60;5.43;;;8.30;99.90;;;6.72;93.31;99962.22;6284678;22;20078;-83
2024/03/23 08:49:54;;;;;;;49.45;5.35;;;8.30;99.90;;;6.99;92.91;99965.38;6287274;22;20003;-83
2024/03/23 08:52:31;;;;;;;31.30;4.68;;;8.40;99.90;;;6.91;91.77;99962.28;6283155;22;19999;-84
2024/03/23 08:54:57;;;;;;;31.00;4.18;;;8.40;99.90;;;6.80;91.55;99971.50;6281739;22;20017;-85
2024/03/23 08:57:23;;;;;;;41.13;4.80;;;;;;;7.01;92.88;99964.47;6281287;22;20006;-84
2024/03/23 09:00:01;;;;;;;35.00;4.60;;;8.50;99.90;;;7.26;91.98;99969.50;6282186;22;20010;-85
2024/03/23 09:05:21;;;;;;;37.72;4.30;;;;;;;7.48;88.95;99979.84;6297951;22;20014;-82
2024/03/23 09:07:54;;;;;;;28.45;4.43;;;8.80;99.90;;;7.43;87.78;99979.19;6281017;22;20018;-84
2024/03/23 09:10:23;;;;;;;36.63;4.90;;;8.80;99.90;;;7.52;87.11;99976.16;6255641;22;20011;-83
2024/03/23 09:12:49;;;;;;;26.92;4.10;;;8.80;99.90;;;7.43;86.92;99971.31;6254242;22;20007;-83
2024/03/23 09:15:15;;;;;;;29.70;4.22;;;8.80;99.90;;;7.24;87.25;99980.03;6281051;22;20007;-86
2024/03/23 09:17:51;;;;;;;31.15;3.58;;;8.70;99.90;;;7.14;88.04;99971.72;6278205;22;20062;-86
2024/03/23 09:21:01;;;;;;;;;;;8.70;99.90;;;6.98;88.26;99965.47;6280999;22;20007;-85
2024/03/23 09:23:10;;;;;;;27.00;3.60;;;8.60;99.90;;;7.07;88.01;99966.84;6277042;22;19930;-85
2024/03/23 09:25:51;;;;;;;33.13;4.07;;;8.50;99.90;;;6.97;87.87;99964.59;6281900;22;20013;-83
2024/03/23 09:28:29;;;;;;;;;;;;;;;;;;;;;
2024/03/23 09:31:38;;;;;;;;;;;;;;;;;;;;;
2024/03/23 09:34:04;;;;;;;34.63;4.55;;;8.70;99.90;;;7.49;87.89;99961.41;6284758;22;20715;-84
2024/03/23 09:36:31;;;;;;;27.27;4.18;;;8.80;99.90;;;7.61;86.72;99960.00;6281010;22;20003;-83
2024/03/23 09:39:10;;;;;;;25.15;3.88;;;8.90;99.90;;;7.65;86.54;99955.47;6278018;22;20003;-84
2024/03/23 09:41:36;;;;;;;29.85;4.43;;;9.10;99.90;;;7.78;86.87;99953.97;6279458;22;20042;-83
2024/03/23 09:44:03;;;;;;;25.67;3.95;;;9.10;99.90;;;7.63;85.45;99947.69;6256403;22;20011;-84
2024/03/23 09:46:44;;;;;;;25.85;4.00;;;9.00;99.90;;;7.54;85.71;99955.97;6278663;22;20018;-83
2024/03/23 09:49:17;;;;;;;36.42;4.18;;;9.10;99.90;;;7.88;86.19;99957.00;6281319;22;20014;-83
2024/03/23 09:51:42;;;;;;;31.08;4.30;;;9.30;99.90;;;8.02;85.20;99960.66;6277479;22;20014;-83
2024/03/23 09:54:36;;;;;;;19.40;3.58;;;9.30;99.90;;;7.89;82.23;99963.97;6280685;22;20447;-82
2024/03/23 09:57:00;;;;;;;32.30;3.63;;;9.20;99.90;;;7.77;81.08;99962.75;6283793;22;20082;-83
2024/03/23 09:59:31;;;;;;;31.80;4.07;;;9.30;99.90;;;7.95;81.24;99961.88;6307980;22;19999;-82
2024/03/23 10:02:06;;;;;;;30.17;5.30;;;;;;;8.15;82.33;99965.31;6279619;22;20010;-81
2024/03/23 10:04:45;;;;;;;31.15;4.80;;;9.50;99.90;;;8.36;81.91;99959.03;6280008;22;20011;-82
2024/03/23 10:07:39;;;;;;;25.88;4.22;;;9.60;99.90;;;8.27;81.49;99953.38;6280918;22;20030;-83
2024/03/23 10:10:38;;;;;;;26.63;3.58;;;9.60;99.90;;;8.19;81.63;99951.13;6276037;22;20011;-82
2024/03/23 10:13:07;;;;;;;24.33;3.53;;;9.70;99.90;;;8.25;81.29;99953.47;6192633;23;20086;-82
2024/03/23 10:15:39;;;;;;;22.63;3.80;;;9.70;99.90;;;8.48;80.34;99956.75;6187056;23;20004;-82
2024/03/23 10:18:25;;;;;;;23.70;3.70;;;9.80;99.90;;;8.72;80.26;99960.72;6187305;23;20005;-83
2024/03/23 10:21:18;;;;;;;24.42;3.20;;;10.00;99.90;;;8.79;78.63;99961.25;6186974;23;20008;-83
2024/03/23 10:23:46;;;;;;;23.83;4.10;;;10.00;99.90;;;8.88;77.30;99968.69;6187691;23;20013;-83
2024/03/23 10:26:23;;;;;;;30.02;4.28;;;10.10;99.90;;;9.00;76.96;99960.16;6185275;23;20034;-83
2024/03/23 10:29:17;;;;;;;23.15;3.65;;;10.20;99.90;;;8.96;76.17;99973.53;6185504;23;20083;-84
2024/03/23 10:31:47;;;;;;;20.45;3.00;;;10.20;99.90;;;8.69;75.93;99966.16;6127816;23;20783;-83
2024/03/23 10:34:36;;;;;;;21.83;2.83;;;10.10;99.90;;;8.69;76.29;99971.41;6128560;23;20014;-82
2024/03/23 10:37:07;;;;;;;27.80;3.22;;;10.10;99.90;;;8.73;75.84;99972.94;6127014;23;20513;-83
2024/03/23 10:39:41;;;;;;;26.08;3.92;;;10.10;99.90;;;8.89;75.50;99982.66;6127700;23;20056;-82
2024/03/23 10:42:19;;;;;;;19.38;3.10;;;10.10;99.90;;;8.40;75.13;99964.94;6126003;23;20009;-84